createdAt,value
2017-11-08T00:00:30.163Z,97.7
2017-11-08T00:01:29.327Z,97.6
2017-11-08T00:02:27.970Z,97.6
2017-11-08T00:03:27.388Z,97.7
2017-11-08T00:04:26.024Z,97.7
2017-11-08T00:05:25.541Z,97.7
2017-11-08T00:06:24.208Z,97.7
2017-11-08T00:07:23.853Z,97.7
2017-11-08T00:08:22.729Z,97.7
2017-11-08T00:09:21.879Z,97.7
2017-11-08T00:10:20.885Z,97.8
2017-11-08T00:12:19.036Z,97.8
2017-11-08T00:13:18.185Z,97.8
2017-11-08T00:14:17.346Z,97.8
2017-11-08T00:15:16.485Z,97.8
2017-11-08T00:16:15.134Z,97.8
2017-11-08T00:17:14.542Z,97.8
2017-11-08T00:18:13.323Z,97.8
2017-11-08T00:19:12.594Z,97.8
2017-11-08T00:20:11.739Z,97.9
2017-11-08T00:21:10.617Z,97.9
2017-11-08T00:22:09.494Z,97.8
2017-11-08T00:23:08.768Z,97.9
2017-11-08T00:24:07.778Z,97.9
2017-11-08T00:25:07.170Z,97.9
2017-11-08T00:26:05.811Z,97.9
2017-11-08T00:27:04.954Z,97.9
2017-11-08T00:28:03.961Z,97.9
2017-11-08T00:29:03.129Z,97.9
2017-11-08T00:30:02.652Z,97.9
2017-11-08T00:31:01.422Z,97.9
2017-11-08T00:32:00.574Z,97.9
2017-11-08T00:32:59.859Z,97.9
2017-11-08T00:33:59.012Z,97.9
2017-11-08T00:34:57.516Z,97.9
2017-11-08T00:35:56.802Z,97.9
2017-11-08T00:36:56.077Z,97.9
2017-11-08T00:37:54.963Z,97.9
2017-11-08T00:38:53.981Z,97.9
2017-11-08T00:39:53.231Z,97.9
2017-11-08T00:40:52.241Z,97.9
2017-11-08T00:41:51.118Z,97.8
2017-11-08T00:42:50.389Z,97.8
2017-11-08T00:43:49.663Z,97.8
2017-11-08T00:44:48.540Z,97.8
2017-11-08T00:45:47.564Z,97.8
2017-11-08T00:46:46.713Z,97.8
2017-11-08T00:47:45.593Z,97.8
2017-11-08T00:48:45.111Z,97.8
2017-11-08T00:49:43.757Z,97.8
2017-11-08T00:51:42.164Z,97.8
2017-11-08T00:52:41.310Z,97.8
2017-11-08T00:54:39.467Z,97.9
2017-11-08T00:55:10.166Z,97.9
2017-11-08T00:56:37.494Z,97.8
2017-11-08T00:57:36.511Z,97.8
2017-11-08T00:58:35.652Z,97.8
2017-11-08T00:59:34.663Z,97.9
2017-11-08T01:00:34.047Z,97.9
2017-11-08T01:02:31.945Z,97.9
2017-11-08T01:03:30.955Z,97.9
2017-11-08T01:04:30.366Z,97.8
2017-11-08T01:06:28.272Z,97.8
2017-11-08T01:07:27.290Z,97.8
2017-11-08T01:08:26.435Z,97.8
2017-11-08T01:09:25.451Z,97.8
2017-11-08T01:10:24.734Z,97.8
2017-11-08T01:11:23.882Z,97.6
2017-11-08T01:12:22.777Z,97.5
2017-11-08T01:13:21.819Z,97.6
2017-11-08T01:14:20.845Z,97.6
2017-11-08T01:15:20.361Z,97.6
2017-11-08T01:16:19.008Z,97.5
2017-11-08T01:17:18.020Z,97.5
2017-11-08T01:18:17.538Z,97.5
2017-11-08T01:19:16.318Z,97.6
2017-11-08T01:20:15.460Z,97.6
2017-11-08T01:21:14.340Z,97.6
2017-11-08T01:22:13.483Z,97.6
2017-11-08T01:23:12.632Z,97.6
2017-11-08T01:24:11.926Z,97.5
2017-11-08T01:25:10.572Z,97.5
2017-11-08T01:25:41.159Z,97.5
2017-11-08T01:26:11.240Z,97.6
2017-11-08T01:26:41.565Z,97.6
2017-11-08T01:28:08.122Z,97.5
2017-11-08T01:29:07.004Z,97.5
2017-11-08T01:30:06.525Z,97.5
2017-11-08T01:33:03.570Z,97.4
2017-11-08T01:36:00.600Z,97.4
2017-11-08T01:36:30.694Z,97.4
2017-11-08T01:37:01.288Z,97.4
2017-11-08T01:37:31.371Z,97.4
2017-11-08T01:38:01.694Z,97.4
2017-11-08T01:38:32.024Z,97.4
2017-11-08T01:39:02.223Z,97.4
2017-11-08T01:40:56.090Z,97.4
2017-11-08T01:41:54.995Z,97.4
2017-11-08T01:42:54.387Z,97.4
2017-11-08T01:43:53.404Z,97.4
2017-11-08T01:44:52.422Z,97.4
2017-11-08T01:45:51.679Z,97.5
2017-11-08T01:46:50.820Z,97.5
2017-11-08T01:48:48.733Z,97.4
2017-11-08T01:49:47.878Z,97.4
2017-11-08T01:50:47.015Z,97.4
2017-11-08T01:51:45.899Z,97.4
2017-11-08T01:52:45.150Z,97.4
2017-11-08T01:53:44.033Z,97.4
2017-11-08T01:54:43.415Z,97.3
2017-11-08T01:55:42.425Z,97.4
2017-11-08T01:56:41.305Z,97.4
2017-11-08T01:57:40.590Z,97.3
2017-11-08T01:59:38.599Z,97.3
2017-11-08T02:00:37.610Z,97.3
2017-11-08T02:01:36.640Z,97.3
2017-11-08T02:02:35.924Z,97.2
2017-11-08T02:03:35.200Z,97.2
2017-11-08T02:04:34.351Z,97.2
2017-11-08T02:05:33.367Z,97.2
2017-11-08T02:06:32.515Z,97.2
2017-11-08T02:07:31.019Z,97.2
2017-11-08T02:08:30.163Z,97.2
2017-11-08T02:09:29.448Z,97.1
2017-11-08T02:10:28.733Z,97.1
2017-11-08T02:11:27.750Z,97.1
2017-11-08T02:12:26.520Z,97.1
2017-11-08T02:13:25.791Z,97.1
2017-11-08T02:14:24.673Z,97.1
2017-11-08T02:15:23.815Z,97
2017-11-08T02:15:53.912Z,97
2017-11-08T02:17:22.117Z,97
2017-11-08T02:17:52.825Z,97
2017-11-08T02:18:22.884Z,97
2017-11-08T02:18:53.729Z,97
2017-11-08T02:20:19.177Z,96.9
2017-11-08T02:23:16.336Z,96.9
2017-11-08T02:24:15.750Z,96.9
2017-11-08T02:26:14.015Z,96.9
2017-11-08T02:27:13.040Z,96.9
2017-11-08T02:28:11.946Z,96.9
2017-11-08T02:29:10.830Z,96.8
2017-11-08T02:31:08.964Z,96.9
2017-11-08T02:32:08.353Z,96.8
2017-11-08T02:33:07.638Z,96.8
2017-11-08T02:34:06.525Z,96.9
2017-11-08T02:35:05.818Z,96.9
2017-11-08T02:36:04.478Z,96.9
2017-11-08T02:37:03.998Z,96.9
2017-11-08T02:38:02.798Z,96.9
2017-11-08T02:39:02.090Z,96.9
2017-11-08T02:40:01.010Z,97
2017-11-08T02:41:00.296Z,96.9
2017-11-08T02:41:58.943Z,96.9
2017-11-08T02:42:57.964Z,96.9
2017-11-08T02:44:56.632Z,96.8
2017-11-08T02:45:55.283Z,96.8
2017-11-08T02:46:54.442Z,96.6
2017-11-08T02:47:53.466Z,96.6
2017-11-08T02:48:52.743Z,96.6
2017-11-08T02:49:51.792Z,96.6
2017-11-08T02:52:48.861Z,96.6
2017-11-08T02:53:48.266Z,96.6
2017-11-08T02:54:46.924Z,96.6
2017-11-08T02:55:46.088Z,96.6
2017-11-08T02:56:45.379Z,96.6
2017-11-08T02:57:44.394Z,96.6
2017-11-08T02:58:43.552Z,96.7
2017-11-08T02:59:42.568Z,96.6
2017-11-08T03:01:40.600Z,96.4
2017-11-08T03:04:38.139Z,96.6
2017-11-08T03:05:37.146Z,96.5
2017-11-08T03:06:36.148Z,96.6
2017-11-08T03:07:34.922Z,96.6
2017-11-08T03:08:34.442Z,96.6
2017-11-08T03:09:33.461Z,96.5
2017-11-08T03:10:32.493Z,96.4
2017-11-08T03:11:31.654Z,96.3
2017-11-08T03:12:30.430Z,96.3
2017-11-08T03:13:29.942Z,96.4
2017-11-08T03:15:27.830Z,96.3
2017-11-08T03:16:26.841Z,96.3
2017-11-08T03:17:25.719Z,96.4
2017-11-08T03:19:24.124Z,96.3
2017-11-08T03:20:23.140Z,96.4
2017-11-08T03:22:21.542Z,96.4
2017-11-08T03:23:20.190Z,96.4
2017-11-08T03:24:19.200Z,96.4
2017-11-08T03:25:18.451Z,96.4
2017-11-08T03:26:17.586Z,96.4
2017-11-08T03:27:16.727Z,96.4
2017-11-08T03:28:16.012Z,96.5
2017-11-08T03:29:15.173Z,96.5
2017-11-08T03:30:13.833Z,96.4
2017-11-08T03:31:13.144Z,96.4
2017-11-08T03:32:11.931Z,96.4
2017-11-08T03:33:10.940Z,96.5
2017-11-08T03:34:10.085Z,96.4
2017-11-08T03:35:09.087Z,96.5
2017-11-08T03:36:08.223Z,96.5
2017-11-08T03:37:07.375Z,96.6
2017-11-08T03:38:06.287Z,96.7
2017-11-08T03:39:05.570Z,96.6
2017-11-08T03:40:04.472Z,96.6
2017-11-08T03:44:00.752Z,96.7
2017-11-08T03:46:58.431Z,96.8
2017-11-08T03:47:57.437Z,96.8
2017-11-08T03:48:56.078Z,96.7
2017-11-08T03:49:55.718Z,96.6
2017-11-08T03:50:54.595Z,96.7
2017-11-08T03:51:53.860Z,96.7
2017-11-08T03:54:50.640Z,96.8
2017-11-08T03:55:50.024Z,96.8
2017-11-08T03:56:48.769Z,96.7
2017-11-08T03:57:48.147Z,96.7
2017-11-08T03:58:47.059Z,96.7
2017-11-08T03:59:46.207Z,96.7
2017-11-08T04:00:45.484Z,96.8
2017-11-08T04:01:44.118Z,96.8
2017-11-08T04:02:43.497Z,96.7
2017-11-08T04:03:42.629Z,96.7
2017-11-08T04:04:41.644Z,96.7
2017-11-08T04:06:39.909Z,96.7
2017-11-08T04:07:38.541Z,96.7
2017-11-08T04:08:37.811Z,96.6
2017-11-08T04:09:36.950Z,96.6
2017-11-08T04:10:35.828Z,96.6
2017-11-08T04:11:34.982Z,96.5
2017-11-08T04:12:34.096Z,96.6
2017-11-08T04:13:32.974Z,96.6
2017-11-08T04:14:32.238Z,96.6
2017-11-08T04:15:31.381Z,96.6
2017-11-08T04:16:30.523Z,96.6
2017-11-08T04:17:29.533Z,96.5
2017-11-08T04:18:28.567Z,96.5
2017-11-08T04:19:27.806Z,96.5
2017-11-08T04:20:26.822Z,96.4
2017-11-08T04:21:25.821Z,96.4
2017-11-08T04:22:24.690Z,96.4
2017-11-08T04:23:24.208Z,96.4
2017-11-08T04:24:23.223Z,96.4
2017-11-08T04:26:21.266Z,96.4
2017-11-08T04:29:18.804Z,96.3
2017-11-08T04:30:17.540Z,96.3
2017-11-08T04:32:15.572Z,96.2
2017-11-08T04:33:14.938Z,96.2
2017-11-08T04:33:45.396Z,96.2
2017-11-08T04:34:15.976Z,96.2
2017-11-08T04:34:46.431Z,96.2
2017-11-08T04:35:16.745Z,96.2
2017-11-08T04:35:47.335Z,96.2
2017-11-08T04:36:17.547Z,96.2
2017-11-08T04:37:11.158Z,96
2017-11-08T04:39:09.177Z,96.1
2017-11-08T04:41:07.321Z,96.2
2017-11-08T04:42:06.594Z,96.3
2017-11-08T04:43:05.595Z,96.2
2017-11-08T04:44:04.727Z,96.2
2017-11-08T04:44:35.417Z,96.2
2017-11-08T04:46:02.867Z,96.1
2017-11-08T04:47:01.741Z,95.9
2017-11-08T04:48:59.995Z,96
2017-11-08T04:49:59.132Z,96
2017-11-08T04:51:57.027Z,96.1
2017-11-08T04:52:56.301Z,96.1
2017-11-08T04:53:55.313Z,96.1
2017-11-08T04:54:54.582Z,96.1
2017-11-08T04:56:52.597Z,96.1
2017-11-08T04:57:51.931Z,96.1
2017-11-08T04:58:50.697Z,96
2017-11-08T04:59:49.573Z,96.1
2017-11-08T05:00:49.212Z,96.1
2017-11-08T05:01:47.963Z,96.1
2017-11-08T05:02:46.907Z,96.1
2017-11-08T05:03:45.916Z,96.1
2017-11-08T05:05:44.323Z,96.1
2017-11-08T05:06:43.453Z,96
2017-11-08T05:07:42.315Z,96.1
2017-11-08T05:08:41.453Z,96.1
2017-11-08T05:09:40.586Z,96.1
2017-11-08T05:10:39.726Z,96.1
2017-11-08T05:11:38.455Z,96.1
2017-11-08T05:12:37.827Z,96.1
2017-11-08T05:13:36.841Z,96.1
2017-11-08T05:14:36.116Z,96.1
2017-11-08T05:15:35.115Z,96.1
2017-11-08T05:17:50.399Z,96.1
2017-11-08T05:18:32.556Z,96.1
2017-11-08T05:19:31.196Z,96.1
2017-11-08T05:20:30.460Z,96.1
2017-11-08T05:21:29.465Z,96.1
2017-11-08T05:22:28.607Z,96.1
2017-11-08T05:23:27.614Z,96.1
2017-11-08T05:24:26.886Z,96.1
2017-11-08T05:25:25.755Z,96.1
2017-11-08T05:26:24.622Z,96.1
2017-11-08T05:26:54.948Z,96.1
2017-11-08T05:27:25.403Z,96.1
2017-11-08T05:28:22.900Z,96.1
2017-11-08T05:29:22.201Z,96.2
2017-11-08T05:30:21.339Z,96.2
2017-11-08T05:32:19.226Z,96.3
2017-11-08T05:33:18.240Z,96.4
2017-11-08T05:34:17.382Z,96.4
2017-11-08T05:35:16.262Z,96.4
2017-11-08T05:36:15.675Z,96.4
2017-11-08T05:37:14.818Z,96.4
2017-11-08T05:38:13.966Z,96.5
2017-11-08T05:39:12.973Z,96.5
2017-11-08T05:40:12.105Z,96.5
2017-11-08T05:41:10.873Z,96.5
2017-11-08T05:42:09.776Z,96.5
2017-11-08T05:43:09.423Z,96.5
2017-11-08T05:44:08.296Z,96.6
2017-11-08T05:45:07.204Z,96.6
2017-11-08T05:46:06.340Z,96.6
2017-11-08T05:47:05.613Z,96.6
2017-11-08T05:48:04.505Z,96.6
2017-11-08T05:49:03.532Z,96.6
2017-11-08T05:50:02.810Z,96.6
2017-11-08T05:51:01.824Z,96.6
2017-11-08T05:52:01.102Z,96.6
2017-11-08T05:52:59.869Z,96.6
2017-11-08T05:53:59.280Z,96.5
2017-11-08T05:54:58.057Z,96.5
2017-11-08T05:55:57.078Z,96.5
2017-11-08T05:56:56.084Z,96.5
2017-11-08T05:58:54.290Z,96.4
2017-11-08T05:59:53.704Z,96.4
2017-11-08T06:00:52.575Z,96.5
2017-11-08T06:01:51.837Z,96.4
2017-11-08T06:02:50.350Z,96.4
2017-11-08T06:03:49.726Z,96.4
2017-11-08T06:04:48.493Z,96.3
2017-11-08T06:05:47.788Z,96.3
2017-11-08T06:06:46.795Z,96.3
2017-11-08T06:07:45.803Z,96.2
2017-11-08T06:08:45.177Z,96.2
2017-11-08T06:09:44.192Z,96.2
2017-11-08T06:10:43.330Z,96.2
2017-11-08T06:11:42.343Z,96.3
2017-11-08T06:12:41.358Z,96.3
2017-11-08T06:13:40.368Z,96.3
2017-11-08T06:14:39.242Z,96.4
2017-11-08T06:15:38.635Z,96.4
2017-11-08T06:16:37.639Z,96.4
2017-11-08T06:17:36.792Z,96.4
2017-11-08T06:18:35.787Z,96.4
2017-11-08T06:19:34.957Z,96.4
2017-11-08T06:20:34.097Z,96.4
2017-11-08T06:21:32.983Z,96.5
2017-11-08T06:22:31.864Z,96.5
2017-11-08T06:23:31.255Z,96.5
2017-11-08T06:24:30.404Z,96.5
2017-11-08T06:25:29.414Z,96.5
2017-11-08T06:26:28.292Z,96.5
2017-11-08T06:28:26.311Z,96.4
2017-11-08T06:29:25.833Z,96.4
2017-11-08T06:30:24.478Z,96.4
2017-11-08T06:31:23.665Z,96.4
2017-11-08T06:32:23.176Z,96.3
2017-11-08T06:33:21.685Z,96.3
2017-11-08T06:34:20.932Z,96.2
2017-11-08T06:35:20.207Z,96.3
2017-11-08T06:36:19.219Z,96.2
2017-11-08T06:37:18.224Z,96.1
2017-11-08T06:38:17.249Z,96
2017-11-08T06:39:16.536Z,95.9
2017-11-08T06:40:15.409Z,96
2017-11-08T06:41:14.415Z,96
2017-11-08T06:42:13.420Z,96.1
2017-11-08T06:43:12.689Z,96.1
2017-11-08T06:44:11.562Z,96.1
2017-11-08T06:45:10.698Z,96.1
2017-11-08T06:46:10.200Z,96.1
2017-11-08T06:47:08.833Z,96.1
2017-11-08T06:48:07.979Z,96.1
2017-11-08T06:49:07.122Z,95.9
2017-11-08T06:50:06.013Z,95.9
2017-11-08T06:51:05.391Z,95.9
2017-11-08T06:52:04.263Z,95.8
2017-11-08T06:53:03.403Z,95.7
2017-11-08T06:54:02.673Z,95.7
2017-11-08T06:55:01.811Z,95.7
2017-11-08T06:56:00.819Z,95.7
2017-11-08T06:56:59.720Z,95.6
2017-11-08T06:57:58.991Z,95.7
2017-11-08T06:58:57.996Z,95.7
2017-11-08T06:59:57.271Z,95.8
2017-11-08T07:00:56.176Z,95.8
2017-11-08T07:01:54.947Z,95.8
2017-11-08T07:02:53.955Z,95.8
2017-11-08T07:03:53.114Z,95.7
2017-11-08T07:04:52.380Z,95.6
2017-11-08T07:05:51.658Z,95.6
2017-11-08T07:06:50.694Z,95.6
2017-11-08T07:07:49.830Z,95.6
2017-11-08T07:08:48.332Z,95.6
2017-11-08T07:09:47.844Z,95.5
2017-11-08T07:11:45.868Z,95.6
2017-11-08T07:12:45.005Z,95.6
2017-11-08T07:14:43.161Z,95.6
2017-11-08T07:15:42.436Z,95.4
2017-11-08T07:16:41.205Z,95.2
2017-11-08T07:17:40.219Z,95.3
2017-11-08T07:18:39.361Z,95.3
2017-11-08T07:19:38.181Z,95.2
2017-11-08T07:20:37.322Z,95.2
2017-11-08T07:21:36.614Z,95.1
2017-11-08T07:22:35.495Z,95.2
2017-11-08T07:23:34.902Z,95.1
2017-11-08T07:24:33.688Z,95.1
2017-11-08T07:25:33.200Z,95
2017-11-08T07:26:31.696Z,95
2017-11-08T07:27:31.200Z,94.8
2017-11-08T07:28:30.208Z,94.8
2017-11-08T07:29:29.241Z,94.7
2017-11-08T07:30:28.511Z,94.7
2017-11-08T07:31:27.386Z,94.5
2017-11-08T07:32:26.530Z,94.6
2017-11-08T07:33:25.532Z,94.6
2017-11-08T07:34:24.416Z,94.6
2017-11-08T07:35:23.934Z,94.6
2017-11-08T07:36:22.943Z,94.6
2017-11-08T07:37:21.590Z,94.6
2017-11-08T07:38:20.973Z,94.5
2017-11-08T07:39:19.848Z,94.5
2017-11-08T07:40:18.861Z,94.4
2017-11-08T07:41:18.002Z,94.5
2017-11-08T07:42:17.517Z,94.5
2017-11-08T07:43:16.524Z,94.5
2017-11-08T07:45:14.539Z,94.4
2017-11-08T07:46:13.541Z,94.4
2017-11-08T07:47:12.677Z,94.4
2017-11-08T07:48:11.956Z,94.4
2017-11-08T07:49:10.603Z,94.5
2017-11-08T07:50:09.612Z,94.4
2017-11-08T07:51:09.123Z,94.4
2017-11-08T07:52:07.766Z,94.4
2017-11-08T07:53:07.274Z,94.4
2017-11-08T07:54:05.924Z,94.3
2017-11-08T07:56:04.583Z,94.6
2017-11-08T07:57:03.221Z,94.5
2017-11-08T07:58:02.614Z,94.3
2017-11-08T07:59:01.392Z,94.2
2017-11-08T08:00:00.762Z,93.9
2017-11-08T08:01:00.032Z,94
2017-11-08T08:01:58.810Z,94
2017-11-08T08:02:58.078Z,94
2017-11-08T08:03:57.225Z,94.1
2017-11-08T08:04:56.225Z,93.8
2017-11-08T08:05:55.233Z,93.8
2017-11-08T08:06:54.237Z,93.8
2017-11-08T08:07:53.372Z,93.8
2017-11-08T08:08:52.267Z,93.7
2017-11-08T08:09:51.273Z,93.7
2017-11-08T08:11:49.822Z,93.3
2017-11-08T08:12:48.651Z,93.4
2017-11-08T08:13:47.795Z,93.4
2017-11-08T08:14:46.804Z,93.5
2017-11-08T08:16:45.088Z,93.6
2017-11-08T08:17:43.986Z,93.5
2017-11-08T08:18:43.498Z,93.3
2017-11-08T08:19:42.007Z,93.3
2017-11-08T08:20:41.504Z,93.1
2017-11-08T08:21:40.514Z,93.1
2017-11-08T08:22:39.657Z,93.2
2017-11-08T08:23:38.793Z,93.3
2017-11-08T08:25:36.557Z,92.6
2017-11-08T08:26:35.560Z,92.9
2017-11-08T08:27:34.833Z,93
2017-11-08T08:28:34.115Z,93
2017-11-08T08:29:33.020Z,93.2
2017-11-08T08:30:32.028Z,92.9
2017-11-08T08:31:31.169Z,92.7
2017-11-08T08:32:01.491Z,92.7
2017-11-08T08:32:31.858Z,92.6
2017-11-08T08:33:02.320Z,92.6
2017-11-08T08:33:32.649Z,92.6
2017-11-08T08:34:28.408Z,92.9
2017-11-08T08:36:26.441Z,92.2
2017-11-08T08:37:25.713Z,91.9
2017-11-08T08:38:24.869Z,92
2017-11-08T08:39:24.116Z,91.7
2017-11-08T08:40:22.879Z,91.8
2017-11-08T08:41:22.261Z,91.7
2017-11-08T08:42:21.274Z,91.8
2017-11-08T08:43:20.167Z,91.8
2017-11-08T08:44:19.092Z,91.4
2017-11-08T08:45:18.741Z,91.3
2017-11-08T08:46:17.355Z,91.3
2017-11-08T08:47:16.808Z,91
2017-11-08T08:48:15.956Z,91.2
2017-11-08T08:49:15.085Z,90.9
2017-11-08T08:50:13.869Z,91.2
2017-11-08T08:51:12.872Z,90.4
2017-11-08T08:52:12.381Z,90.7
2017-11-08T08:53:11.022Z,90.5
2017-11-08T08:54:10.164Z,90.5
2017-11-08T08:55:09.166Z,90.4
2017-11-08T08:56:08.314Z,89.9
2017-11-08T08:57:07.697Z,90
2017-11-08T08:58:06.562Z,89.7
2017-11-08T08:59:05.444Z,89.4
2017-11-08T09:00:04.956Z,89.7
2017-11-08T09:01:03.965Z,89.9
2017-11-08T09:02:02.735Z,89.1
2017-11-08T09:03:02.138Z,89.4
2017-11-08T09:04:01.066Z,89.5
2017-11-08T09:05:00.357Z,89.3
2017-11-08T09:05:59.504Z,89.5
2017-11-08T09:06:58.271Z,89.5
2017-11-08T09:07:57.413Z,89.6
2017-11-08T09:08:56.920Z,89.5
2017-11-08T09:09:55.571Z,89.5
2017-11-08T09:10:54.984Z,89.3
2017-11-08T09:11:53.992Z,89.2
2017-11-08T09:12:24.442Z,89.2
2017-11-08T09:12:54.774Z,88.9
2017-11-08T09:13:24.959Z,88.9
2017-11-08T09:13:55.520Z,89
2017-11-08T09:14:25.840Z,89
2017-11-08T09:15:50.032Z,89.1
2017-11-08T09:16:49.181Z,89.2
2017-11-08T09:17:48.319Z,89.2
2017-11-08T09:18:47.563Z,89.1
2017-11-08T09:19:46.585Z,89.3
2017-11-08T09:20:45.468Z,89.1
2017-11-08T09:21:44.984Z,88.8
2017-11-08T09:22:44.011Z,88.2
2017-11-08T09:23:43.024Z,87.8
2017-11-08T09:24:42.436Z,88
2017-11-08T09:25:41.072Z,87.4
2017-11-08T09:26:40.462Z,87.2
2017-11-08T09:27:39.600Z,87.3
2017-11-08T09:28:38.238Z,86.6
2017-11-08T09:29:37.751Z,86.4
2017-11-08T09:30:36.766Z,87.3
2017-11-08T09:31:36.059Z,87.4
2017-11-08T09:32:06.519Z,87.4
2017-11-08T09:32:36.846Z,87.6
2017-11-08T09:33:07.440Z,87.6
2017-11-08T09:33:37.757Z,87.9
2017-11-08T09:34:32.877Z,87.8
2017-11-08T09:35:32.247Z,87.2
2017-11-08T09:36:31.385Z,86.9
2017-11-08T09:37:30.258Z,86.5
2017-11-08T09:38:29.401Z,86.2
2017-11-08T09:39:28.535Z,86.1
2017-11-08T09:40:27.948Z,86
2017-11-08T09:41:26.712Z,86.4
2017-11-08T09:42:25.845Z,86.6
2017-11-08T09:43:24.846Z,86.2
2017-11-08T09:44:24.132Z,86.5
2017-11-08T09:45:23.270Z,85.7
2017-11-08T09:46:22.645Z,86.4
2017-11-08T09:47:21.661Z,86.7
2017-11-08T09:48:20.302Z,86.8
2017-11-08T09:49:19.678Z,86.2
2017-11-08T09:50:18.812Z,85.3
2017-11-08T09:51:17.576Z,85.5
2017-11-08T09:52:17.244Z,84.6
2017-11-08T09:53:15.908Z,85
2017-11-08T09:54:14.920Z,85.3
2017-11-08T09:55:14.344Z,84.8
2017-11-08T09:56:13.672Z,84.9
2017-11-08T09:57:12.685Z,84.4
2017-11-08T09:58:11.327Z,84.6
2017-11-08T10:00:09.598Z,85.2
2017-11-08T10:01:08.648Z,85.2
2017-11-08T10:02:08.058Z,85.5
2017-11-08T10:03:06.946Z,85.1
2017-11-08T10:04:05.953Z,85.1
2017-11-08T10:05:05.470Z,84.7
2017-11-08T10:06:04.609Z,83.9
2017-11-08T10:07:03.474Z,83.9
2017-11-08T10:08:02.503Z,84.1
2017-11-08T10:09:01.700Z,84.3
2017-11-08T10:10:01.048Z,84.7
2017-11-08T10:10:59.845Z,81.8
2017-11-08T10:11:59.380Z,82.5
2017-11-08T10:12:58.415Z,83.9
2017-11-08T10:14:56.368Z,83.4
2017-11-08T10:15:55.507Z,83.7
2017-11-08T10:16:54.639Z,83.3
2017-11-08T10:17:53.693Z,84.1
2017-11-08T10:18:53.116Z,83.7
2017-11-08T10:19:51.933Z,83
2017-11-08T10:20:51.213Z,82.7
2017-11-08T10:22:49.366Z,83.5
2017-11-08T10:23:48.501Z,84.4
2017-11-08T10:24:47.507Z,83.8
2017-11-08T10:25:46.528Z,83.7
2017-11-08T10:26:45.711Z,83.8
2017-11-08T10:27:44.987Z,83.6
2017-11-08T10:28:44.128Z,83
2017-11-08T10:29:43.256Z,83.4
2017-11-08T10:30:42.263Z,82.5
2017-11-08T10:31:41.676Z,82.8
2017-11-08T10:32:40.448Z,82.3
2017-11-08T10:33:39.581Z,82.1
2017-11-08T10:34:38.952Z,82.9
2017-11-08T10:35:38.017Z,82.8
2017-11-08T10:36:37.299Z,83
2017-11-08T10:37:36.305Z,83.5
2017-11-08T10:38:35.073Z,82.7
2017-11-08T10:39:34.089Z,82.4
2017-11-08T10:40:33.223Z,82.3
2017-11-08T10:41:32.744Z,83.5
2017-11-08T10:42:31.587Z,83.7
2017-11-08T10:43:30.816Z,82.4
2017-11-08T10:44:30.050Z,81.7
2017-11-08T10:45:29.104Z,81.6
2017-11-08T10:46:28.009Z,82
2017-11-08T10:48:26.321Z,81.3
2017-11-08T10:49:25.599Z,81.7
2017-11-08T10:49:55.978Z,81.7
2017-11-08T10:51:23.957Z,81.7
2017-11-08T10:52:22.734Z,81.9
2017-11-08T10:53:22.304Z,83.1
2017-11-08T10:54:21.056Z,83.2
2017-11-08T10:55:20.487Z,82.9
2017-11-08T10:56:19.410Z,82.8
2017-11-08T10:57:18.322Z,82.7
2017-11-08T10:58:17.749Z,82.9
2017-11-08T10:59:16.667Z,83.1
2017-11-08T11:00:15.841Z,82.8
2017-11-08T11:00:46.578Z,82.8
2017-11-08T11:01:16.825Z,83.3
2017-11-08T11:02:13.961Z,83.1
2017-11-08T11:03:13.258Z,83
2017-11-08T11:04:12.539Z,82
2017-11-08T11:05:11.582Z,82.1
2017-11-08T11:06:10.642Z,82.1
2017-11-08T11:08:09.101Z,82.9
2017-11-08T11:09:08.164Z,83.4
2017-11-08T11:11:06.086Z,83.8
2017-11-08T11:12:05.524Z,83.9
2017-11-08T11:13:04.437Z,83.7
2017-11-08T11:14:03.449Z,83.3
2017-11-08T11:15:02.866Z,82.9
2017-11-08T11:16:02.011Z,82.7
2017-11-08T11:17:01.312Z,83.4
2017-11-08T11:18:00.114Z,82.5
2017-11-08T11:18:59.392Z,83
2017-11-08T11:19:58.665Z,82.5
2017-11-08T11:20:57.714Z,83.2
2017-11-08T11:21:56.621Z,83.6
2017-11-08T11:22:56.042Z,83.3
2017-11-08T11:23:54.821Z,83.4
2017-11-08T11:24:53.877Z,82.6
2017-11-08T11:25:52.959Z,82.4
2017-11-08T11:26:52.388Z,82.5
2017-11-08T11:27:51.318Z,82.1
2017-11-08T11:28:50.593Z,82.6
2017-11-08T11:29:49.866Z,82.3
2017-11-08T11:30:48.776Z,82.7
2017-11-08T11:31:48.056Z,83.2
2017-11-08T11:32:46.840Z,83
2017-11-08T11:33:46.410Z,83.1
2017-11-08T11:34:45.212Z,83.4
2017-11-08T11:35:44.508Z,83.3
2017-11-08T11:36:43.446Z,83.5
2017-11-08T11:37:42.605Z,83.8
2017-11-08T11:38:41.891Z,83.6
2017-11-08T11:39:40.954Z,82.7
2017-11-08T11:40:40.252Z,82.9
2017-11-08T11:41:39.315Z,82.9
2017-11-08T11:42:09.544Z,82.9
2017-11-08T11:42:40.150Z,82.5
2017-11-08T11:43:10.377Z,82.5
2017-11-08T11:43:40.845Z,82.8
2017-11-08T11:44:36.202Z,82.9
2017-11-08T11:45:35.485Z,82.6
2017-11-08T11:46:34.809Z,82.9
2017-11-08T11:47:34.091Z,83.5
2017-11-08T11:48:32.735Z,83.4
2017-11-08T11:49:32.160Z,83.5
2017-11-08T11:50:31.310Z,84
2017-11-08T11:51:30.367Z,83.5
2017-11-08T11:52:29.526Z,82.9
2017-11-08T11:53:28.585Z,83.5
2017-11-08T11:54:27.865Z,83
2017-11-08T11:55:26.781Z,82.7
2017-11-08T11:56:26.213Z,82.1
2017-11-08T11:57:24.995Z,83.2
2017-11-08T11:58:24.280Z,83.7
2017-11-08T11:59:23.209Z,82.8
2017-11-08T12:00:22.761Z,82.7
2017-11-08T12:01:21.540Z,82.1
2017-11-08T12:02:20.822Z,82
2017-11-08T12:03:19.979Z,81.5
2017-11-08T12:04:18.769Z,81.5
2017-11-08T12:05:18.199Z,81.8
2017-11-08T12:06:17.486Z,81.8
2017-11-08T12:07:16.260Z,81.7
2017-11-08T12:08:15.416Z,82.6
2017-11-08T12:09:14.563Z,82.1
2017-11-08T12:10:13.851Z,81.9
2017-11-08T12:11:12.778Z,81.5
2017-11-08T12:12:11.945Z,81.5
2017-11-08T12:13:11.221Z,81.9
2017-11-08T12:15:09.536Z,82.4
2017-11-08T12:16:08.466Z,82.7
2017-11-08T12:17:07.542Z,82.5
2017-11-08T12:18:06.860Z,83.5
2017-11-08T12:19:06.017Z,83.2
2017-11-08T12:20:04.796Z,83.3
2017-11-08T12:21:04.184Z,82.5
2017-11-08T12:22:02.993Z,83.5
2017-11-08T12:23:02.421Z,82.7
2017-11-08T12:24:01.701Z,82.9
2017-11-08T12:25:00.779Z,82.8
2017-11-08T12:25:59.583Z,82.6
2017-11-08T12:26:58.865Z,83.2
2017-11-08T12:27:58.292Z,82.2
2017-11-08T12:29:56.258Z,82.7
2017-11-08T12:30:55.688Z,82.6
2017-11-08T12:31:54.465Z,82.7
2017-11-08T12:32:54.012Z,82.8
2017-11-08T12:33:52.790Z,81.5
2017-11-08T12:34:52.086Z,81.6
2017-11-08T12:35:51.304Z,81.9
2017-11-08T12:36:50.205Z,81.6
2017-11-08T12:37:49.342Z,81.8
2017-11-08T12:38:48.635Z,81.7
2017-11-08T12:39:47.785Z,82.4
2017-11-08T12:40:46.705Z,82.7
2017-11-08T12:41:45.771Z,82.4
2017-11-08T12:42:44.917Z,82.5
2017-11-08T12:43:43.930Z,82.3
2017-11-08T12:44:43.212Z,82.4
2017-11-08T12:46:41.371Z,82
2017-11-08T12:48:39.808Z,81.9
2017-11-08T12:49:39.219Z,81.7
2017-11-08T12:50:38.001Z,82.5
2017-11-08T12:51:37.289Z,82.3
2017-11-08T12:52:36.352Z,82.5
2017-11-08T12:53:35.274Z,82.6
2017-11-08T12:54:34.474Z,83
2017-11-08T12:55:33.989Z,83.1
2017-11-08T12:56:32.931Z,82.9
2017-11-08T12:57:32.100Z,82.3
2017-11-08T12:58:31.388Z,82.6
2017-11-08T12:59:30.538Z,82.1
2017-11-08T13:00:29.313Z,82.4
2017-11-08T13:01:28.617Z,82.2
2017-11-08T13:02:27.555Z,83
2017-11-08T13:03:26.986Z,83.9
2017-11-08T13:04:25.905Z,83
2017-11-08T13:05:24.948Z,82.8
2017-11-08T13:06:24.094Z,82.4
2017-11-08T13:07:23.153Z,81.9
2017-11-08T13:08:22.172Z,82
2017-11-08T13:09:21.447Z,82.2
2017-11-08T13:10:20.613Z,83.4
2017-11-08T13:11:19.903Z,82.6
2017-11-08T13:12:18.829Z,82.4
2017-11-08T13:13:18.247Z,82.1
2017-11-08T13:14:16.907Z,82.4
2017-11-08T13:15:16.459Z,82.7
2017-11-08T13:16:15.606Z,82.5
2017-11-08T13:17:14.534Z,82.7
2017-11-08T13:18:13.822Z,83
2017-11-08T13:19:12.965Z,83.3
2017-11-08T13:20:12.128Z,82.4
2017-11-08T13:21:11.430Z,83.3
2017-11-08T13:22:10.213Z,82.6
2017-11-08T13:23:09.668Z,83.2
2017-11-08T13:24:08.440Z,83.7
2017-11-08T13:25:07.857Z,83.9
2017-11-08T13:26:07.008Z,83.5
2017-11-08T13:27:05.655Z,83.9
2017-11-08T13:28:05.171Z,83.7
2017-11-08T13:29:04.093Z,83.9
2017-11-08T13:30:03.146Z,84.2
2017-11-08T13:31:02.540Z,84.3
2017-11-08T13:32:01.619Z,84.1
2017-11-08T13:33:00.784Z,84.1
2017-11-08T13:33:59.666Z,84.4
2017-11-08T13:34:58.961Z,83.2
2017-11-08T13:35:58.252Z,83.6
2017-11-08T13:37:56.560Z,84.1
2017-11-08T13:38:55.592Z,84.4
2017-11-08T13:39:54.505Z,84.4
2017-11-08T13:40:53.796Z,83.5
2017-11-08T13:41:52.713Z,84.1
2017-11-08T13:42:51.888Z,84.2
2017-11-08T13:43:50.940Z,83.6
2017-11-08T13:44:50.093Z,83.7
2017-11-08T13:45:49.372Z,83.9
2017-11-08T13:46:48.783Z,84.8
2017-11-08T13:47:47.428Z,83.8
2017-11-08T13:48:46.851Z,83.6
2017-11-08T13:49:45.773Z,83.9
2017-11-08T13:50:45.040Z,83.8
2017-11-08T13:51:43.860Z,83.7
2017-11-08T13:52:43.136Z,83.4
2017-11-08T13:53:42.174Z,83.9
2017-11-08T13:54:41.470Z,83.9
2017-11-08T13:55:40.893Z,83.9
2017-11-08T13:56:39.833Z,84.2